Time;durP1;ratioP1;P1;durP2;ratioP2;P2;SDS_P1;SDS_P2;PMS_P1;PMS_P2;Temp;Humidity;BMP_temperature;BMP_pressure;BME280_temperature;BME280_humidity;BME280_pressure;Samples;Min_cycle;Max_cycle;Signal;HPM_P1;HPM_P2
2022/05/18 00:01:13;;;;;;;8.52;3.53;;;;;;;;;;5068029;28;20117;-66
2022/05/18 00:03:42;;;;;;;10.77;4.10;;;;;;;;;;5050737;28;20075;-63
2022/05/18 00:06:10;;;;;;;5.47;2.47;;;;;;;;;;5049358;28;20102;-63
2022/05/18 00:08:36;;;;;;;6.20;2.47;;;;;;;;;;5082336;28;20059;-65
2022/05/18 00:11:04;;;;;;;4.50;2.10;;;;;;;;;;5084732;28;20314;-65
2022/05/18 00:13:32;;;;;;;8.10;3.05;;;;;;;;;;5082741;28;20061;-64
2022/05/18 00:15:58;;;;;;;8.00;3.20;;;;;;;;;;5088591;28;20040;-66
2022/05/18 00:18:25;;;;;;;6.18;3.05;;;;;;;;;;5082396;28;20055;-65
2022/05/18 00:20:52;;;;;;;4.38;2.13;;;;;;;;;;5090011;28;20063;-68
2022/05/18 00:23:18;;;;;;;6.75;2.22;;;;;;;;;;5078579;28;20052;-68
2022/05/18 00:25:45;;;;;;;6.22;2.75;;;;;;;;;;5070748;28;20166;-65
2022/05/18 00:28:13;;;;;;;8.13;2.75;;;;;;;;;;5066043;28;20137;-67
2022/05/18 00:30:40;;;;;;;7.50;2.55;;;;;;;;;;5071635;28;20048;-68
2022/05/18 00:33:08;;;;;;;5.18;2.38;;;;;;;;;;5066770;28;20055;-67
2022/05/18 00:35:35;;;;;;;6.05;2.60;;;;;;;;;;5087865;28;20089;-65
2022/05/18 00:38:03;;;;;;;7.63;2.97;;;;;;;;;;5068288;28;20048;-61
2022/05/18 00:40:29;;;;;;;4.55;2.05;;;;;;;;;;5090813;28;20135;-67
2022/05/18 00:42:56;;;;;;;5.80;2.40;;;;;;;;;;5083290;28;20094;-67
2022/05/18 00:45:22;;;;;;;3.67;1.90;;;;;;;;;;5071099;28;20055;-68
2022/05/18 00:47:51;;;;;;;6.15;2.42;;;;;;;;;;5070443;28;20060;-66
2022/05/18 00:50:18;;;;;;;7.88;3.10;;;;;;;;;;5082986;28;20059;-66
2022/05/18 00:52:46;;;;;;;5.53;2.28;;;;;;;;;;5076050;28;20076;-68
2022/05/18 00:55:15;;;;;;;6.78;2.90;;;;;;;;;;5079445;28;20173;-69
2022/05/18 00:57:42;;;;;;;;;;;;;;;;;;5091838;28;20051;-68
2022/05/18 01:00:11;;;;;;;7.13;2.40;;;;;;;;;;5087964;28;20007;-66
2022/05/18 01:02:39;;;;;;;4.40;1.80;;;;;;;;;;5057202;28;20048;-68
2022/05/18 01:05:09;;;;;;;7.18;2.63;;;;;;;;;;5037140;28;20114;-69
2022/05/18 01:07:38;;;;;;;7.22;3.15;;;;;;;;;;5049479;28;20099;-69
2022/05/18 01:10:05;;;;;;;5.80;2.47;;;;;;;;;;5061253;28;20057;-70
2022/05/18 01:12:32;;;;;;;7.00;2.10;;;;;;;;;;5081470;28;20048;-68
2022/05/18 01:14:59;;;;;;;6.82;2.63;;;;;;;;;;5072538;28;20063;-67
2022/05/18 01:17:28;;;;;;;6.07;2.72;;;;;;;;;;5066246;28;20079;-69
2022/05/18 01:19:56;;;;;;;4.55;2.42;;;;;;;;;;5059508;28;20143;-69
2022/05/18 01:22:30;;;;;;;5.93;2.03;;;;;;;;;;5050583;28;20056;-69
2022/05/18 01:25:00;;;;;;;4.20;1.80;;;;;;;;;;5045688;28;20072;-69
2022/05/18 01:27:29;;;;;;;5.38;2.35;;;;;;;;;;5083335;28;20052;-69
2022/05/18 01:29:57;;;;;;;5.53;2.67;;;;;;;;;;5061230;28;20052;-69
2022/05/18 01:32:25;;;;;;;5.38;1.95;;;;;;;;;;5066091;28;20048;-69
2022/05/18 01:34:51;;;;;;;5.47;2.17;;;;;;;;;;5061090;28;20048;-65
2022/05/18 01:37:18;;;;;;;3.97;2.00;;;;;;;;;;5065057;28;20066;-65
2022/05/18 01:39:50;;;;;;;7.47;2.20;;;;;;;;;;5066615;28;20056;-69
2022/05/18 01:42:20;;;;;;;13.70;3.50;;;;;;;;;;5059974;28;20053;-69
2022/05/18 01:44:48;;;;;;;12.55;4.10;;;;;;;;;;5063188;28;20052;-67
2022/05/18 01:47:15;;;;;;;10.02;2.92;;;;;;;;;;5057521;28;20048;-66
2022/05/18 01:49:44;;;;;;;6.68;2.70;;;;;;;;;;5062184;28;20044;-68
2022/05/18 01:52:11;;;;;;;4.80;1.98;;;;;;;;;;5057617;28;20049;-69
2022/05/18 01:54:39;;;;;;;7.15;2.47;;;;;;;;;;5047243;28;20152;-67
2022/05/18 01:57:06;;;;;;;5.88;2.42;;;;;;;;;;5042635;28;20049;-66
2022/05/18 01:59:32;;;;;;;8.60;2.33;;;;;;;;;;5071072;28;20055;-68
2022/05/18 02:02:00;;;;;;;3.63;1.98;;;;;;;;;;5052413;28;20060;-68
2022/05/18 02:04:27;;;;;;;11.50;3.17;;;;;;;;;;5044525;28;20107;-66
2022/05/18 02:06:54;;;;;;;6.60;2.55;;;;;;;;;;5056747;28;20088;-69
2022/05/18 02:09:21;;;;;;;7.35;2.67;;;;;;;;;;5045027;28;20045;-66
2022/05/18 02:11:47;;;;;;;11.82;4.22;;;;;;;;;;5043388;28;20134;-69
2022/05/18 02:14:14;;;;;;;4.20;2.22;;;;;;;;;;5051417;28;20044;-67
2022/05/18 02:16:41;;;;;;;8.15;2.97;;;;;;;;;;5052743;28;20060;-68
2022/05/18 02:19:09;;;;;;;5.30;2.53;;;;;;;;;;5041697;28;20049;-68
2022/05/18 02:21:36;;;;;;;9.43;3.30;;;;;;;;;;5052495;28;20044;-65
2022/05/18 02:24:02;;;;;;;4.45;2.08;;;;;;;;;;5043689;28;20044;-67
2022/05/18 02:26:29;;;;;;;10.50;3.45;;;;;;;;;;5057424;28;20049;-67
2022/05/18 02:28:58;;;;;;;4.95;2.25;;;;;;;;;;5044509;28;20209;-66
2022/05/18 02:31:24;;;;;;;6.95;3.22;;;;;;;;;;5055674;28;20059;-68
2022/05/18 02:33:51;;;;;;;10.05;2.85;;;;;;;;;;5056292;28;21529;-65
2022/05/18 02:36:20;;;;;;;3.42;2.05;;;;;;;;;;5042043;28;20115;-65
2022/05/18 02:38:52;;;;;;;;;;;;;;;;;;5052984;28;20111;-64
2022/05/18 02:41:18;;;;;;;6.10;2.20;;;;;;;;;;5045574;28;19934;-66
2022/05/18 02:43:45;;;;;;;11.45;3.30;;;;;;;;;;5059072;28;20127;-67
2022/05/18 02:46:14;;;;;;;8.82;3.95;;;;;;;;;;5046445;28;20057;-65
2022/05/18 02:48:42;;;;;;;5.78;2.25;;;;;;;;;;5045097;28;20063;-64
2022/05/18 02:51:09;;;;;;;3.72;1.77;;;;;;;;;;5052885;28;20056;-65
2022/05/18 02:53:38;;;;;;;6.85;3.38;;;;;;;;;;5053501;28;20059;-69
2022/05/18 02:56:07;;;;;;;9.02;3.67;;;;;;;;;;5055781;28;20076;-61
2022/05/18 02:58:35;;;;;;;15.85;3.67;;;;;;;;;;5058927;28;20053;-66
2022/05/18 03:01:02;;;;;;;6.85;2.72;;;;;;;;;;5054345;28;20079;-69
2022/05/18 03:03:28;;;;;;;9.75;3.55;;;;;;;;;;5043160;28;20206;-65
2022/05/18 03:05:55;;;;;;;8.75;3.03;;;;;;;;;;5071570;28;20098;-64
2022/05/18 03:08:26;;;;;;;7.95;3.47;;;;;;;;;;5043423;28;20068;-64
2022/05/18 03:10:53;;;;;;;9.02;3.83;;;;;;;;;;5039625;28;20049;-66
2022/05/18 03:13:20;;;;;;;5.78;2.38;;;;;;;;;;5053798;28;20040;-65
2022/05/18 03:15:47;;;;;;;8.63;3.42;;;;;;;;;;5047728;28;20118;-67
2022/05/18 03:18:16;;;;;;;5.30;2.72;;;;;;;;;;5059411;28;20048;-64
2022/05/18 03:23:36;;;;;;;4.15;1.90;;;;;;;;;;5060198;28;20044;-62
2022/05/18 03:26:06;;;;;;;4.65;1.85;;;;;;;;;;5051418;28;20057;-66
2022/05/18 03:28:32;;;;;;;8.43;3.08;;;;;;;;;;5053719;28;20076;-65
2022/05/18 03:30:59;;;;;;;6.72;2.45;;;;;;;;;;5054520;28;20053;-67
2022/05/18 03:33:26;;;;;;;9.43;3.55;;;;;;;;;;5052215;28;20052;-63
2022/05/18 03:35:52;;;;;;;6.93;2.72;;;;;;;;;;5049291;28;20053;-67
2022/05/18 03:38:19;;;;;;;10.90;4.13;;;;;;;;;;5052416;28;20049;-66
2022/05/18 03:40:46;;;;;;;7.50;3.17;;;;;;;;;;5049176;28;20099;-68
2022/05/18 03:43:14;;;;;;;5.57;2.28;;;;;;;;;;5056472;28;20075;-66
2022/05/18 03:45:41;;;;;;;4.50;1.95;;;;;;;;;;5047427;28;20080;-66
2022/05/18 03:48:11;;;;;;;6.95;3.00;;;;;;;;;;5058786;28;20052;-63
2022/05/18 03:50:39;;;;;;;8.00;3.42;;;;;;;;;;5052259;28;20052;-66
2022/05/18 03:53:06;;;;;;;10.53;3.80;;;;;;;;;;5054656;28;20106;-64
2022/05/18 03:55:32;;;;;;;4.93;1.85;;;;;;;;;;5046037;28;20057;-64
2022/05/18 03:58:01;;;;;;;11.13;3.03;;;;;;;;;;5071164;28;20115;-66
2022/05/18 04:00:30;;;;;;;7.68;3.22;;;;;;;;;;5053583;28;20053;-68
2022/05/18 04:02:57;;;;;;;4.57;1.95;;;;;;;;;;5062412;28;20084;-66
2022/05/18 04:05:23;;;;;;;4.03;1.77;;;;;;;;;;5066851;28;20052;-66
2022/05/18 04:07:51;;;;;;;4.82;2.65;;;;;;;;;;5045746;28;20049;-67
2022/05/18 04:10:18;;;;;;;6.90;3.50;;;;;;;;;;5048428;28;20103;-66
2022/05/18 04:12:45;;;;;;;5.95;1.88;;;;;;;;;;5057842;28;20044;-68
2022/05/18 04:15:16;;;;;;;6.50;2.72;;;;;;;;;;5068593;28;20040;-64
2022/05/18 04:17:44;;;;;;;5.57;2.97;;;;;;;;;;5062550;28;20056;-69
2022/05/18 04:20:12;;;;;;;7.32;2.92;;;;;;;;;;5069099;28;20075;-68
2022/05/18 04:22:38;;;;;;;6.65;2.42;;;;;;;;;;5059572;28;20080;-67
2022/05/18 04:25:05;;;;;;;7.63;2.80;;;;;;;;;;5059762;28;20056;-69
2022/05/18 04:27:32;;;;;;;4.00;2.00;;;;;;;;;;5063089;28;20068;-65
2022/05/18 04:29:58;;;;;;;4.47;1.77;;;;;;;;;;5068584;28;20056;-65
2022/05/18 04:32:25;;;;;;;8.73;3.25;;;;;;;;;;5056644;28;20075;-66
2022/05/18 04:34:53;;;;;;;6.22;2.78;;;;;;;;;;5031011;28;20126;-66
2022/05/18 04:37:20;;;;;;;7.22;3.25;;;;;;;;;;5041417;28;20120;-66
2022/05/18 04:39:47;;;;;;;5.80;2.67;;;;;;;;;;5046654;28;20059;-68
2022/05/18 04:42:14;;;;;;;7.60;3.42;;;;;;;;;;5026285;28;20099;-66
2022/05/18 04:44:41;;;;;;;4.73;2.27;;;;;;;;;;5030816;28;20048;-62
2022/05/18 04:47:08;;;;;;;8.93;2.92;;;;;;;;;;5044475;28;20303;-63
2022/05/18 04:49:35;;;;;;;5.70;1.90;;;;;;;;;;5043753;28;20044;-64
2022/05/18 04:52:02;;;;;;;12.20;4.35;;;;;;;;;;5066813;28;20047;-61
2022/05/18 04:54:29;;;;;;;9.18;3.38;;;;;;;;;;5035412;28;20056;-62
2022/05/18 04:56:56;;;;;;;11.57;3.28;;;;;;;;;;5030377;28;20111;-67
2022/05/18 04:59:22;;;;;;;12.30;6.35;;;;;;;;;;5047988;28;20052;-66
2022/05/18 05:01:49;;;;;;;7.07;2.85;;;;;;;;;;5030974;28;20065;-66
2022/05/18 05:04:15;;;;;;;10.52;3.75;;;;;;;;;;5049956;28;20054;-62
2022/05/18 05:06:43;;;;;;;4.85;2.60;;;;;;;;;;5044570;28;20049;-65
2022/05/18 05:09:12;;;;;;;9.43;4.07;;;;;;;;;;5040236;28;20053;-62
2022/05/18 05:11:39;;;;;;;7.80;2.63;;;;;;;;;;5063684;28;20072;-62
2022/05/18 05:14:06;;;;;;;6.20;2.20;;;;;;;;;;5041977;28;20044;-66
2022/05/18 05:16:32;;;;;;;7.72;3.15;;;;;;;;;;5065108;28;20058;-61
2022/05/18 05:18:59;;;;;;;8.68;3.60;;;;;;;;;;5059760;28;20077;-64
2022/05/18 05:21:26;;;;;;;12.57;5.55;;;;;;;;;;5044907;28;20144;-63
2022/05/18 05:23:53;;;;;;;11.35;5.40;;;;;;;;;;5043154;28;20052;-61
2022/05/18 05:26:20;;;;;;;8.20;3.55;;;;;;;;;;5047851;28;20171;-64
2022/05/18 05:28:48;;;;;;;14.32;4.65;;;;;;;;;;5064484;28;20048;-66
2022/05/18 05:31:15;;;;;;;6.28;2.92;;;;;;;;;;5039083;28;20079;-62
2022/05/18 05:33:42;;;;;;;10.55;4.25;;;;;;;;;;5063798;28;20060;-65
2022/05/18 05:36:09;;;;;;;14.20;4.88;;;;;;;;;;5059108;28;20087;-64
2022/05/18 05:38:36;;;;;;;11.88;4.32;;;;;;;;;;5045511;28;20056;-64
2022/05/18 05:41:03;;;;;;;6.47;2.88;;;;;;;;;;5053697;28;20052;-62
2022/05/18 05:43:31;;;;;;;8.45;3.03;;;;;;;;;;5066383;28;20045;-63
2022/05/18 05:45:58;;;;;;;;;;;;;;;;;;5050577;28;20139;-65
2022/05/18 05:48:24;;;;;;;5.97;2.90;;;;;;;;;;5075397;28;19924;-64
2022/05/18 05:50:51;;;;;;;9.95;4.45;;;;;;;;;;5051177;28;20048;-67
2022/05/18 05:53:17;;;;;;;9.77;5.07;;;;;;;;;;5053144;28;20052;-67
2022/05/18 05:55:44;;;;;;;12.85;5.93;;;;;;;;;;5058600;28;20056;-68
2022/05/18 05:58:11;;;;;;;12.30;4.93;;;;;;;;;;5050902;28;20052;-66
2022/05/18 06:00:39;;;;;;;10.13;4.13;;;;;;;;;;5045068;28;20153;-66
2022/05/18 06:03:06;;;;;;;;;;;;;;;;;;5066076;28;20052;-66
2022/05/18 06:05:32;;;;;;;9.27;3.97;;;;;;;;;;5063850;28;19920;-64
2022/05/18 06:07:59;;;;;;;9.38;4.07;;;;;;;;;;5090250;28;20051;-66
2022/05/18 06:10:26;;;;;;;11.95;5.90;;;;;;;;;;5090019;28;20056;-66
2022/05/18 06:12:52;;;;;;;14.18;5.78;;;;;;;;;;5083031;28;20044;-64
2022/05/18 06:15:20;;;;;;;15.00;4.88;;;;;;;;;;5090111;28;20052;-66
2022/05/18 06:17:49;;;;;;;35.90;9.02;;;;;;;;;;5068116;28;20067;-67
2022/05/18 06:20:16;;;;;;;24.38;8.63;;;;;;;;;;5072475;28;20074;-66
2022/05/18 06:22:42;;;;;;;15.18;6.15;;;;;;;;;;5066039;28;20051;-65
2022/05/18 06:25:11;;;;;;;8.77;3.95;;;;;;;;;;5072786;28;20048;-63
2022/05/18 06:27:37;;;;;;;20.17;7.05;;;;;;;;;;5066910;28;20058;-62
2022/05/18 06:30:04;;;;;;;10.30;5.95;;;;;;;;;;5072329;28;20079;-65
2022/05/18 06:32:31;;;;;;;15.23;6.63;;;;;;;;;;5063419;28;20063;-65
2022/05/18 06:34:59;;;;;;;12.10;5.40;;;;;;;;;;5069284;28;20055;-67
2022/05/18 06:37:25;;;;;;;15.82;7.60;;;;;;;;;;5072321;28;20054;-68
2022/05/18 06:39:52;;;;;;;18.00;6.82;;;;;;;;;;5092689;28;20047;-66
2022/05/18 06:42:19;;;;;;;16.30;7.15;;;;;;;;;;5079161;28;20052;-66
2022/05/18 06:44:45;;;;;;;14.55;6.82;;;;;;;;;;5069931;28;20083;-67
2022/05/18 06:47:12;;;;;;;14.30;7.35;;;;;;;;;;5065546;28;20063;-67
2022/05/18 06:49:40;;;;;;;15.00;6.28;;;;;;;;;;5092812;28;20154;-66
2022/05/18 06:52:09;;;;;;;9.47;5.53;;;;;;;;;;5093116;28;20055;-68
2022/05/18 06:54:36;;;;;;;13.75;6.53;;;;;;;;;;5065235;28;20070;-68
2022/05/18 06:57:03;;;;;;;13.82;7.85;;;;;;;;;;5071886;28;20044;-66
2022/05/18 06:59:30;;;;;;;10.60;5.10;;;;;;;;;;5083940;28;20073;-68
2022/05/18 07:01:57;;;;;;;11.40;5.60;;;;;;;;;;5073018;28;20146;-68
2022/05/18 07:04:24;;;;;;;11.70;6.03;;;;;;;;;;5067457;28;20062;-65
2022/05/18 07:06:51;;;;;;;14.85;4.80;;;;;;;;;;5073245;28;20055;-66
2022/05/18 07:09:20;;;;;;;21.27;7.80;;;;;;;;;;5056719;28;20101;-67
2022/05/18 07:11:49;;;;;;;15.10;7.95;;;;;;;;;;5052617;28;20052;-66
2022/05/18 07:14:16;;;;;;;13.02;6.20;;;;;;;;;;5083652;28;20059;-65
2022/05/18 07:16:43;;;;;;;16.88;8.93;;;;;;;;;;5092688;28;20556;-67
2022/05/18 07:19:10;;;;;;;16.65;7.32;;;;;;;;;;5078318;28;20066;-67
2022/05/18 07:21:36;;;;;;;12.50;6.05;;;;;;;;;;5089785;28;20044;-65
2022/05/18 07:24:03;;;;;;;17.52;6.85;;;;;;;;;;5063034;28;20071;-64
2022/05/18 07:26:31;;;;;;;13.25;7.30;;;;;;;;;;5070062;28;20110;-67
2022/05/18 07:28:59;;;;;;;18.13;7.57;;;;;;;;;;5064481;28;20080;-68
2022/05/18 07:31:26;;;;;;;17.25;7.72;;;;;;;;;;5068718;28;20060;-68
2022/05/18 07:33:52;;;;;;;16.75;7.43;;;;;;;;;;5066600;28;20058;-63
2022/05/18 07:36:19;;;;;;;15.68;7.38;;;;;;;;;;5051979;28;20072;-67
2022/05/18 07:38:46;;;;;;;14.02;6.90;;;;;;;;;;5053862;28;20060;-65
2022/05/18 07:41:14;;;;;;;20.52;7.90;;;;;;;;;;5065921;28;20147;-68
2022/05/18 07:43:42;;;;;;;13.23;7.40;;;;;;;;;;5070053;28;20052;-67
2022/05/18 07:46:10;;;;;;;14.25;7.68;;;;;;;;;;5064621;28;20055;-66
2022/05/18 07:48:37;;;;;;;14.45;8.02;;;;;;;;;;5071549;28;20075;-64
2022/05/18 07:51:03;;;;;;;14.20;7.65;;;;;;;;;;5078310;28;20056;-65
2022/05/18 07:53:30;;;;;;;23.35;9.27;;;;;;;;;;5091838;28;20118;-66
2022/05/18 07:55:56;;;;;;;15.15;8.00;;;;;;;;;;5075810;28;20044;-66
2022/05/18 07:58:23;;;;;;;18.98;9.02;;;;;;;;;;5087822;28;20113;-64
2022/05/18 08:00:51;;;;;;;19.52;8.80;;;;;;;;;;5081620;28;20086;-65
2022/05/18 08:03:18;;;;;;;19.27;9.38;;;;;;;;;;5063878;28;20056;-66
2022/05/18 08:05:45;;;;;;;20.88;10.20;;;;;;;;;;5033781;28;20055;-66
2022/05/18 08:08:14;;;;;;;17.23;9.13;;;;;;;;;;5067869;28;20052;-65
2022/05/18 08:16:11;;;;;;;10.57;5.47;;;;;;;;;;5063938;28;20049;-65
2022/05/18 08:18:37;;;;;;;19.17;9.38;;;;;;;;;;5065705;28;20056;-68
2022/05/18 08:21:04;;;;;;;20.75;9.77;;;;;;;;;;5067574;28;20048;-68
2022/05/18 08:23:31;;;;;;;19.30;10.00;;;;;;;;;;5060587;28;20060;-67
2022/05/18 08:25:58;;;;;;;17.85;8.18;;;;;;;;;;5067469;28;20052;-67
2022/05/18 08:28:27;;;;;;;16.95;9.18;;;;;;;;;;5061177;28;20067;-66
2022/05/18 08:30:54;;;;;;;18.70;8.60;;;;;;;;;;5067063;28;20044;-66
2022/05/18 08:33:22;;;;;;;16.38;9.15;;;;;;;;;;5061064;28;20068;-64
2022/05/18 08:35:49;;;;;;;19.95;9.85;;;;;;;;;;5059183;28;20048;-67
2022/05/18 08:38:16;;;;;;;18.25;9.95;;;;;;;;;;5067059;28;20048;-64
2022/05/18 08:40:45;;;;;;;16.83;9.38;;;;;;;;;;5045709;28;20063;-63
2022/05/18 08:43:14;;;;;;;17.88;9.65;;;;;;;;;;5067455;28;20055;-65
2022/05/18 08:45:44;;;;;;;17.85;8.98;;;;;;;;;;5058360;28;20052;-65
2022/05/18 08:48:19;;;;;;;28.10;10.32;;;;;;;;;;5065804;28;20102;-62
2022/05/18 08:50:47;;;;;;;16.52;10.15;;;;;;;;;;5058524;28;20076;-64
2022/05/18 08:53:24;;;;;;;21.45;10.30;;;;;;;;;;5068001;28;20052;-65
2022/05/18 08:55:58;;;;;;;19.17;10.15;;;;;;;;;;5059603;28;20052;-69
2022/05/18 08:58:31;;;;;;;13.30;7.05;;;;;;;;;;5050029;28;20076;-64
2022/05/18 09:00:59;;;;;;;20.60;8.40;;;;;;;;;;5047155;28;20127;-67
2022/05/18 09:03:33;;;;;;;13.68;6.80;;;;;;;;;;5064149;28;20060;-66
2022/05/18 09:06:05;;;;;;;20.40;9.07;;;;;;;;;;5050373;28;20059;-66
2022/05/18 09:08:34;;;;;;;18.08;10.38;;;;;;;;;;5055718;28;20064;-65
2022/05/18 09:11:03;;;;;;;15.27;6.65;;;;;;;;;;5066746;28;20090;-67
2022/05/18 09:13:30;;;;;;;23.10;10.35;;;;;;;;;;5048760;28;20117;-65
2022/05/18 09:16:02;;;;;;;16.90;9.05;;;;;;;;;;5050116;28;20048;-67
2022/05/18 09:18:32;;;;;;;20.25;9.68;;;;;;;;;;5047173;28;20080;-66
2022/05/18 09:21:02;;;;;;;18.48;9.25;;;;;;;;;;5051625;28;20052;-66
2022/05/18 09:23:51;;;;;;;15.30;5.72;;;;;;;;;;5058500;28;20111;-65
2022/05/18 09:26:36;;;;;;;20.15;10.30;;;;;;;;;;5049985;28;20045;-67
2022/05/18 09:29:09;;;;;;;25.48;11.32;;;;;;;;;;5043834;28;20076;-66
2022/05/18 09:31:44;;;;;;;14.45;8.25;;;;;;;;;;5049888;28;20052;-68
2022/05/18 09:34:19;;;;;;;18.33;7.80;;;;;;;;;;5042642;28;20097;-67
2022/05/18 09:36:56;;;;;;;21.02;11.50;;;;;;;;;;5049912;28;20040;-67
2022/05/18 09:39:27;;;;;;;22.58;10.50;;;;;;;;;;5043064;28;20105;-68
2022/05/18 09:42:03;;;;;;;25.70;10.68;;;;;;;;;;5049652;28;20044;-68
2022/05/18 09:44:35;;;;;;;14.43;7.28;;;;;;;;;;5043148;28;20113;-68
2022/05/18 09:47:02;;;;;;;16.98;8.93;;;;;;;;;;5049491;28;20080;-67
2022/05/18 09:49:31;;;;;;;18.45;8.35;;;;;;;;;;5043516;28;20072;-67
2022/05/18 09:52:01;;;;;;;19.13;8.82;;;;;;;;;;5049836;28;20170;-68
2022/05/18 09:54:31;;;;;;;15.32;8.10;;;;;;;;;;5045217;28;20141;-66
2022/05/18 09:57:02;;;;;;;11.75;5.10;;;;;;;;;;5029938;28;20060;-68
2022/05/18 09:59:31;;;;;;;16.67;7.80;;;;;;;;;;5028620;28;20053;-68
2022/05/18 10:07:34;;;;;;;9.25;5.13;;;;;;;;;;5026423;28;20053;-67
2022/05/18 10:10:05;;;;;;;11.77;4.90;;;;;;;;;;5026946;28;20087;-66
2022/05/18 10:12:36;;;;;;;9.30;4.13;;;;;;;;;;5041022;28;20052;-63
2022/05/18 10:15:05;;;;;;;9.25;4.20;;;;;;;;;;5029121;28;20110;-67
2022/05/18 10:17:34;;;;;;;8.98;4.53;;;;;;;;;;5023321;28;20080;-69
2022/05/18 10:20:02;;;;;;;12.50;5.65;;;;;;;;;;5041844;28;20053;-69
2022/05/18 10:22:30;;;;;;;10.10;4.60;;;;;;;;;;5029607;28;20054;-68
2022/05/18 10:25:07;;;;;;;10.38;4.22;;;;;;;;;;5029763;28;20080;-64
2022/05/18 10:27:36;;;;;;;11.98;5.15;;;;;;;;;;5023585;28;20481;-67
2022/05/18 10:30:08;;;;;;;12.27;3.58;;;;;;;;;;5029649;28;20076;-67
2022/05/18 10:32:35;;;;;;;9.00;3.60;;;;;;;;;;5024418;28;20152;-67
2022/05/18 10:35:02;;;;;;;8.57;3.83;;;;;;;;;;5029249;28;20152;-66
2022/05/18 10:37:30;;;;;;;12.88;3.60;;;;;;;;;;5024575;28;20076;-67
2022/05/18 10:39:58;;;;;;;10.05;3.55;;;;;;;;;;5030301;28;20057;-67
2022/05/18 10:42:28;;;;;;;10.95;4.05;;;;;;;;;;5023703;28;20053;-67
2022/05/18 10:44:56;;;;;;;10.75;3.15;;;;;;;;;;5029518;28;20053;-66
2022/05/18 10:47:26;;;;;;;7.25;3.20;;;;;;;;;;5023903;28;20091;-65
2022/05/18 10:49:55;;;;;;;6.95;2.78;;;;;;;;;;5029441;28;20140;-67
2022/05/18 10:52:29;;;;;;;12.82;4.68;;;;;;;;;;5023708;28;20087;-68
2022/05/18 10:54:56;;;;;;;8.35;2.90;;;;;;;;;;5030612;28;20057;-68
2022/05/18 10:57:31;;;;;;;8.77;3.17;;;;;;;;;;5021353;28;20133;-67
2022/05/18 10:59:59;;;;;;;7.78;3.22;;;;;;;;;;5009172;28;20058;-67
2022/05/18 11:02:29;;;;;;;7.53;3.08;;;;;;;;;;5012757;28;20056;-68
2022/05/18 11:04:58;;;;;;;7.72;3.00;;;;;;;;;;5070984;28;20055;-65
2022/05/18 11:07:24;;;;;;;;;;;;;;;;;;5083355;28;20055;-66
2022/05/18 11:09:50;;;;;;;4.80;2.10;;;;;;;;;;5085824;28;19924;-66
2022/05/18 11:12:25;;;;;;;5.70;2.28;;;;;;;;;;5069273;28;20089;-64
2022/05/18 11:14:56;;;;;;;6.30;2.17;;;;;;;;;;5087762;28;20246;-66
2022/05/18 11:17:25;;;;;;;3.90;1.88;;;;;;;;;;5072264;28;20048;-68
2022/05/18 11:19:56;;;;;;;6.38;2.50;;;;;;;;;;5068031;28;20056;-62
2022/05/18 11:22:29;;;;;;;8.43;2.05;;;;;;;;;;5068533;28;20052;-68
2022/05/18 11:25:02;;;;;;;3.30;1.80;;;;;;;;;;5063233;28;20097;-67
2022/05/18 11:27:30;;;;;;;7.35;2.40;;;;;;;;;;5090178;28;20059;-68
2022/05/18 11:30:02;;;;;;;9.10;2.50;;;;;;;;;;5084229;28;20059;-69
2022/05/18 11:32:33;;;;;;;6.22;1.98;;;;;;;;;;5072928;28;20078;-64
2022/05/18 11:35:03;;;;;;;8.73;2.35;;;;;;;;;;5066132;28;20110;-67
2022/05/18 11:37:44;;;;;;;4.40;1.75;;;;;;;;;;5072217;28;20123;-68
2022/05/18 11:40:18;;;;;;;3.83;1.55;;;;;;;;;;5079750;28;20056;-64
2022/05/18 11:42:52;;;;;;;8.10;2.10;;;;;;;;;;5068667;28;20060;-68
2022/05/18 11:45:24;;;;;;;7.75;3.05;;;;;;;;;;5066445;28;20056;-67
2022/05/18 11:47:57;;;;;;;3.85;2.05;;;;;;;;;;5072448;28;20067;-66
2022/05/18 11:50:28;;;;;;;3.95;1.65;;;;;;;;;;5078133;28;20051;-67
2022/05/18 11:53:01;;;;;;;4.95;1.80;;;;;;;;;;5092371;28;20054;-69
2022/05/18 11:55:34;;;;;;;6.93;2.25;;;;;;;;;;5085535;28;20096;-64
2022/05/18 11:58:04;;;;;;;4.20;1.85;;;;;;;;;;5091639;28;20100;-68
2022/05/18 12:00:46;;;;;;;8.32;2.35;;;;;;;;;;5084601;28;20052;-66
2022/05/18 12:03:16;;;;;;;7.82;2.95;;;;;;;;;;5078509;28;20064;-63
2022/05/18 12:06:00;;;;;;;6.05;2.03;;;;;;;;;;5061447;28;20134;-68
2022/05/18 12:08:42;;;;;;;9.68;3.90;;;;;;;;;;5067417;28;20052;-67
2022/05/18 12:11:11;;;;;;;5.15;2.50;;;;;;;;;;5037923;28;20049;-62
2022/05/18 12:13:44;;;;;;;6.22;2.22;;;;;;;;;;5046233;28;20084;-67
2022/05/18 12:16:15;;;;;;;7.85;2.83;;;;;;;;;;5034508;28;20044;-67
2022/05/18 12:18:46;;;;;;;9.63;3.53;;;;;;;;;;5050541;28;20130;-67
2022/05/18 12:21:15;;;;;;;9.13;2.22;;;;;;;;;;5035661;28;20061;-68
2022/05/18 12:23:43;;;;;;;7.65;3.10;;;;;;;;;;5030809;28;20061;-63
2022/05/18 12:26:10;;;;;;;9.18;3.38;;;;;;;;;;5024751;28;20053;-62
2022/05/18 12:28:37;;;;;;;7.40;2.38;;;;;;;;;;5049591;28;20056;-63
2022/05/18 12:31:03;;;;;;;7.75;2.75;;;;;;;;;;5039197;28;20072;-63
2022/05/18 12:33:35;;;;;;;6.38;1.60;;;;;;;;;;5031746;28;20053;-63
2022/05/18 12:36:03;;;;;;;3.38;1.20;;;;;;;;;;5027420;28;20100;-61
2022/05/18 12:38:33;;;;;;;7.00;2.38;;;;;;;;;;5050042;28;20144;-63
2022/05/18 12:41:02;;;;;;;3.63;2.00;;;;;;;;;;5044016;28;20048;-61
2022/05/18 12:43:34;;;;;;;7.55;2.40;;;;;;;;;;5042326;28;20103;-62
2022/05/18 12:46:03;;;;;;;8.85;2.13;;;;;;;;;;5030481;28;20172;-61
2022/05/18 12:48:37;;;;;;;6.88;2.03;;;;;;;;;;5026267;28;20139;-63
2022/05/18 12:51:08;;;;;;;4.47;1.67;;;;;;;;;;5030375;28;20128;-62
2022/05/18 12:53:45;;;;;;;6.05;2.35;;;;;;;;;;5025409;28;20145;-68
2022/05/18 12:56:17;;;;;;;5.18;2.15;;;;;;;;;;5030081;28;20123;-67
2022/05/18 12:58:51;;;;;;;5.50;2.83;;;;;;;;;;5042304;28;20048;-64
2022/05/18 13:01:20;;;;;;;6.82;2.83;;;;;;;;;;5050753;28;20049;-68
2022/05/18 13:03:54;;;;;;;8.35;3.20;;;;;;;;;;5035850;28;20107;-68
2022/05/18 13:06:30;;;;;;;8.75;3.60;;;;;;;;;;5031306;28;20053;-68
2022/05/18 13:09:01;;;;;;;11.73;3.22;;;;;;;;;;5027385;28;20055;-68
2022/05/18 13:11:30;;;;;;;6.68;2.72;;;;;;;;;;5064893;28;20040;-69
2022/05/18 13:14:05;;;;;;;9.10;2.38;;;;;;;;;;5059684;28;20056;-69
2022/05/18 13:16:50;;;;;;;8.88;3.33;;;;;;;;;;5065398;28;20343;-70
2022/05/18 13:19:19;;;;;;;6.00;2.17;;;;;;;;;;5018571;28;20060;-69
2022/05/18 13:21:46;;;;;;;10.77;3.15;;;;;;;;;;5046565;28;20076;-66
2022/05/18 13:24:14;;;;;;;4.43;1.73;;;;;;;;;;5050381;28;20064;-69
2022/05/18 13:26:43;;;;;;;3.97;1.52;;;;;;;;;;5083130;28;20306;-67
2022/05/18 13:29:12;;;;;;;6.95;2.60;;;;;;;;;;5033578;28;20057;-67
2022/05/18 13:31:39;;;;;;;9.50;2.60;;;;;;;;;;5030261;28;20139;-68
2022/05/18 13:34:09;;;;;;;5.97;2.67;;;;;;;;;;5032027;28;20053;-67
2022/05/18 13:36:40;;;;;;;4.93;2.00;;;;;;;;;;5046181;28;20106;-69
2022/05/18 13:39:11;;;;;;;7.75;3.70;;;;;;;;;;5026020;28;20052;-68
2022/05/18 13:41:37;;;;;;;8.38;2.85;;;;;;;;;;5066414;28;20072;-67
2022/05/18 13:44:05;;;;;;;7.57;2.63;;;;;;;;;;5058935;28;20052;-68
2022/05/18 13:46:32;;;;;;;7.53;2.50;;;;;;;;;;5082318;28;20078;-65
2022/05/18 13:49:01;;;;;;;8.33;2.17;;;;;;;;;;5025819;28;20044;-68
2022/05/18 13:51:30;;;;;;;5.68;2.22;;;;;;;;;;5082980;28;20126;-67
2022/05/18 13:54:00;;;;;;;5.00;1.85;;;;;;;;;;5075941;28;20044;-65
2022/05/18 13:56:28;;;;;;;4.20;1.40;;;;;;;;;;5046219;28;20075;-64
2022/05/18 13:58:58;;;;;;;2.40;1.20;;;;;;;;;;5043945;28;20137;-66
2022/05/18 14:01:31;;;;;;;9.52;3.42;;;;;;;;;;5063978;28;20048;-67
2022/05/18 14:04:03;;;;;;;6.85;2.38;;;;;;;;;;5049505;28;20068;-66
2022/05/18 14:06:31;;;;;;;4.15;2.42;;;;;;;;;;5039159;28;20060;-62
2022/05/18 14:09:11;;;;;;;5.68;2.20;;;;;;;;;;5043977;28;20184;-65
2022/05/18 14:11:38;;;;;;;7.15;2.92;;;;;;;;;;5034325;28;20052;-64
2022/05/18 14:14:04;;;;;;;9.38;3.08;;;;;;;;;;5062947;28;20057;-64
2022/05/18 14:16:33;;;;;;;8.63;2.92;;;;;;;;;;5056397;28;20102;-66
2022/05/18 14:19:01;;;;;;;8.95;3.20;;;;;;;;;;5061646;28;20080;-65
2022/05/18 14:21:27;;;;;;;;;;;;;;;;;;5054986;28;20210;-67
2022/05/18 14:23:57;;;;;;;5.25;2.35;;;;;;;;;;5045809;28;19925;-62
2022/05/18 14:26:27;;;;;;;5.78;2.55;;;;;;;;;;5041977;28;20060;-68
2022/05/18 14:28:56;;;;;;;6.18;1.48;;;;;;;;;;5044566;28;20057;-67
2022/05/18 14:31:24;;;;;;;4.00;1.50;;;;;;;;;;5046484;28;20052;-65
2022/05/18 14:33:52;;;;;;;6.32;2.53;;;;;;;;;;5056548;28;20131;-66
2022/05/18 14:36:25;;;;;;;2.65;1.45;;;;;;;;;;5062785;28;20097;-69
2022/05/18 14:38:55;;;;;;;4.15;1.70;;;;;;;;;;5040862;28;20041;-67
2022/05/18 14:41:22;;;;;;;8.98;3.63;;;;;;;;;;5067163;28;20137;-67
2022/05/18 14:43:50;;;;;;;4.72;1.80;;;;;;;;;;5060928;28;20060;-69
2022/05/18 14:46:21;;;;;;;10.65;2.95;;;;;;;;;;5051149;28;20045;-68
2022/05/18 14:48:50;;;;;;;5.63;2.08;;;;;;;;;;5048871;28;20049;-69
2022/05/18 14:51:19;;;;;;;10.85;3.15;;;;;;;;;;5047743;28;20083;-66
2022/05/18 14:53:48;;;;;;;5.40;2.90;;;;;;;;;;5065805;28;20164;-66
2022/05/18 14:56:14;;;;;;;9.95;3.20;;;;;;;;;;5059858;28;20061;-67
2022/05/18 14:58:43;;;;;;;7.28;2.53;;;;;;;;;;5066091;28;20102;-68
2022/05/18 15:01:17;;;;;;;4.15;1.70;;;;;;;;;;5059657;28;20056;-65
2022/05/18 15:03:44;;;;;;;11.23;4.13;;;;;;;;;;5049022;28;20044;-69